sensor_id;sensor_type;location;lat;lon;timestamp;temperature;humidity
10903;DHT22;5504;47.312;11.060;2023-05-10T00:02:00;16.00;96.30
10903;DHT22;5504;47.312;11.060;2023-05-10T00:04:26;16.00;96.30
10903;DHT22;5504;47.312;11.060;2023-05-10T00:06:53;15.90;96.20
10903;DHT22;5504;47.312;11.060;2023-05-10T00:09:19;15.90;96.30
10903;DHT22;5504;47.312;11.060;2023-05-10T00:11:44;16.00;96.40
10903;DHT22;5504;47.312;11.060;2023-05-10T00:14:11;16.00;96.20
10903;DHT22;5504;47.312;11.060;2023-05-10T00:16:37;16.00;96.10
10903;DHT22;5504;47.312;11.060;2023-05-10T00:19:03;15.90;96.00
10903;DHT22;5504;47.312;11.060;2023-05-10T00:21:28;15.90;96.40
10903;DHT22;5504;47.312;11.060;2023-05-10T00:23:54;15.90;96.50
10903;DHT22;5504;47.312;11.060;2023-05-10T00:26:20;15.90;96.40
10903;DHT22;5504;47.312;11.060;2023-05-10T00:28:46;15.90;96.50
10903;DHT22;5504;47.312;11.060;2023-05-10T00:31:12;15.80;96.40
10903;DHT22;5504;47.312;11.060;2023-05-10T00:33:38;15.90;96.70
10903;DHT22;5504;47.312;11.060;2023-05-10T00:36:04;15.90;96.50
10903;DHT22;5504;47.312;11.060;2023-05-10T00:38:33;15.90;96.40
10903;DHT22;5504;47.312;11.060;2023-05-10T00:41:29;15.80;96.50
10903;DHT22;5504;47.312;11.060;2023-05-10T00:43:58;15.80;96.70
10903;DHT22;5504;47.312;11.060;2023-05-10T00:46:24;15.90;96.90
10903;DHT22;5504;47.312;11.060;2023-05-10T00:48:51;15.80;96.60
10903;DHT22;5504;47.312;11.060;2023-05-10T00:51:17;15.80;96.50
10903;DHT22;5504;47.312;11.060;2023-05-10T00:53:45;15.80;96.60
10903;DHT22;5504;47.312;11.060;2023-05-10T00:56:11;15.70;96.80
10903;DHT22;5504;47.312;11.060;2023-05-10T00:58:38;15.70;96.90
10903;DHT22;5504;47.312;11.060;2023-05-10T01:01:05;15.70;97.00
10903;DHT22;5504;47.312;11.060;2023-05-10T01:03:32;15.70;97.00
10903;DHT22;5504;47.312;11.060;2023-05-10T01:05:58;15.70;97.10
10903;DHT22;5504;47.312;11.060;2023-05-10T01:08:24;15.60;97.10
10903;DHT22;5504;47.312;11.060;2023-05-10T01:10:51;15.60;97.30
10903;DHT22;5504;47.312;11.060;2023-05-10T01:13:33;15.70;97.40
10903;DHT22;5504;47.312;11.060;2023-05-10T01:16:00;15.70;97.20
10903;DHT22;5504;47.312;11.060;2023-05-10T01:18:30;15.70;96.90
10903;DHT22;5504;47.312;11.060;2023-05-10T01:21:19;15.70;97.00
10903;DHT22;5504;47.312;11.060;2023-05-10T01:32:58;15.80;97.00
10903;DHT22;5504;47.312;11.060;2023-05-10T01:35:41;15.80;96.90
10903;DHT22;5504;47.312;11.060;2023-05-10T01:38:11;15.90;96.90
10903;DHT22;5504;47.312;11.060;2023-05-10T01:40:48;16.00;96.80
10903;DHT22;5504;47.312;11.060;2023-05-10T01:43:42;16.20;96.10
10903;DHT22;5504;47.312;11.060;2023-05-10T01:46:17;16.00;96.00
10903;DHT22;5504;47.312;11.060;2023-05-10T01:48:52;15.90;96.20
10903;DHT22;5504;47.312;11.060;2023-05-10T01:51:23;15.80;96.30
10903;DHT22;5504;47.312;11.060;2023-05-10T01:53:50;15.80;96.50
10903;DHT22;5504;47.312;11.060;2023-05-10T01:56:19;15.70;96.80
10903;DHT22;5504;47.312;11.060;2023-05-10T01:58:49;15.70;96.80
10903;DHT22;5504;47.312;11.060;2023-05-10T02:01:18;15.60;96.80
10903;DHT22;5504;47.312;11.060;2023-05-10T02:03:46;15.40;96.70
10903;DHT22;5504;47.312;11.060;2023-05-10T02:06:14;15.40;96.80
10903;DHT22;5504;47.312;11.060;2023-05-10T02:08:43;15.40;97.20
10903;DHT22;5504;47.312;11.060;2023-05-10T02:11:13;15.40;97.50
10903;DHT22;5504;47.312;11.060;2023-05-10T02:13:39;15.50;97.70
10903;DHT22;5504;47.312;11.060;2023-05-10T02:16:07;15.50;97.50
10903;DHT22;5504;47.312;11.060;2023-05-10T02:18:35;15.40;97.30
10903;DHT22;5504;47.312;11.060;2023-05-10T02:21:02;15.40;97.70
10903;DHT22;5504;47.312;11.060;2023-05-10T02:23:29;15.40;97.70
10903;DHT22;5504;47.312;11.060;2023-05-10T02:25:57;15.50;97.90
10903;DHT22;5504;47.312;11.060;2023-05-10T02:28:25;15.50;97.80
10903;DHT22;5504;47.312;11.060;2023-05-10T02:30:53;15.50;97.60
10903;DHT22;5504;47.312;11.060;2023-05-10T02:33:20;15.50;97.50
10903;DHT22;5504;47.312;11.060;2023-05-10T02:35:47;15.60;97.20
10903;DHT22;5504;47.312;11.060;2023-05-10T02:38:14;15.60;97.20
10903;DHT22;5504;47.312;11.060;2023-05-10T02:40:41;15.50;97.00
10903;DHT22;5504;47.312;11.060;2023-05-10T02:43:12;15.20;97.20
10903;DHT22;5504;47.312;11.060;2023-05-10T02:45:39;15.30;97.80
10903;DHT22;5504;47.312;11.060;2023-05-10T02:48:06;15.40;98.00
10903;DHT22;5504;47.312;11.060;2023-05-10T02:50:33;15.40;98.10
10903;DHT22;5504;47.312;11.060;2023-05-10T02:53:06;15.50;97.70
10903;DHT22;5504;47.312;11.060;2023-05-10T02:55:37;15.60;97.20
10903;DHT22;5504;47.312;11.060;2023-05-10T02:58:03;15.70;96.50
10903;DHT22;5504;47.312;11.060;2023-05-10T03:00:29;15.70;95.90
10903;DHT22;5504;47.312;11.060;2023-05-10T03:02:55;15.70;95.70
10903;DHT22;5504;47.312;11.060;2023-05-10T03:05:21;15.60;95.40
10903;DHT22;5504;47.312;11.060;2023-05-10T03:07:47;15.50;95.20
10903;DHT22;5504;47.312;11.060;2023-05-10T03:10:13;15.40;95.50
10903;DHT22;5504;47.312;11.060;2023-05-10T03:15:37;15.30;96.10
10903;DHT22;5504;47.312;11.060;2023-05-10T03:18:19;15.10;96.20
10903;DHT22;5504;47.312;11.060;2023-05-10T03:20:51;15.10;96.50
10903;DHT22;5504;47.312;11.060;2023-05-10T03:23:34;15.10;96.80
10903;DHT22;5504;47.312;11.060;2023-05-10T03:26:01;15.10;96.90
10903;DHT22;5504;47.312;11.060;2023-05-10T03:28:27;15.10;96.80
10903;DHT22;5504;47.312;11.060;2023-05-10T03:30:56;15.20;97.00
10903;DHT22;5504;47.312;11.060;2023-05-10T03:33:22;15.20;96.90
10903;DHT22;5504;47.312;11.060;2023-05-10T03:35:48;15.10;97.00
10903;DHT22;5504;47.312;11.060;2023-05-10T03:38:14;15.00;97.00
10903;DHT22;5504;47.312;11.060;2023-05-10T03:40:40;14.70;97.10
10903;DHT22;5504;47.312;11.060;2023-05-10T03:43:06;14.70;97.40
10903;DHT22;5504;47.312;11.060;2023-05-10T03:45:31;14.80;97.60
10903;DHT22;5504;47.312;11.060;2023-05-10T03:47:58;14.90;97.50
10903;DHT22;5504;47.312;11.060;2023-05-10T03:50:24;15.00;97.40
10903;DHT22;5504;47.312;11.060;2023-05-10T03:52:49;15.10;96.70
10903;DHT22;5504;47.312;11.060;2023-05-10T03:55:15;15.10;96.50
10903;DHT22;5504;47.312;11.060;2023-05-10T03:57:42;15.00;96.20
10903;DHT22;5504;47.312;11.060;2023-05-10T04:00:08;15.00;96.30
10903;DHT22;5504;47.312;11.060;2023-05-10T04:02:35;15.00;96.20
10903;DHT22;5504;47.312;11.060;2023-05-10T04:05:00;15.10;95.80
10903;DHT22;5504;47.312;11.060;2023-05-10T04:07:26;15.10;95.70
10903;DHT22;5504;47.312;11.060;2023-05-10T04:09:52;14.90;96.00
10903;DHT22;5504;47.312;11.060;2023-05-10T04:12:18;14.80;96.20
10903;DHT22;5504;47.312;11.060;2023-05-10T04:14:43;14.80;96.40
10903;DHT22;5504;47.312;11.060;2023-05-10T04:17:09;14.90;96.70
10903;DHT22;5504;47.312;11.060;2023-05-10T04:19:35;14.80;96.60
10903;DHT22;5504;47.312;11.060;2023-05-10T04:22:02;14.80;96.70
10903;DHT22;5504;47.312;11.060;2023-05-10T04:24:28;14.70;96.50
10903;DHT22;5504;47.312;11.060;2023-05-10T04:26:54;14.70;96.60
10903;DHT22;5504;47.312;11.060;2023-05-10T04:29:20;14.80;96.80
10903;DHT22;5504;47.312;11.060;2023-05-10T04:31:46;14.80;96.80
10903;DHT22;5504;47.312;11.060;2023-05-10T04:34:12;14.70;96.20
10903;DHT22;5504;47.312;11.060;2023-05-10T04:36:37;14.50;96.10
10903;DHT22;5504;47.312;11.060;2023-05-10T04:39:04;14.50;96.70
10903;DHT22;5504;47.312;11.060;2023-05-10T04:41:29;14.60;97.20
10903;DHT22;5504;47.312;11.060;2023-05-10T04:43:55;14.70;97.20
10903;DHT22;5504;47.312;11.060;2023-05-10T04:46:21;14.70;97.00
10903;DHT22;5504;47.312;11.060;2023-05-10T04:48:47;14.70;97.00
10903;DHT22;5504;47.312;11.060;2023-05-10T04:51:12;14.80;97.40
10903;DHT22;5504;47.312;11.060;2023-05-10T04:53:38;14.90;97.20
10903;DHT22;5504;47.312;11.060;2023-05-10T04:56:04;15.00;97.10
10903;DHT22;5504;47.312;11.060;2023-05-10T04:58:30;15.00;96.90
10903;DHT22;5504;47.312;11.060;2023-05-10T05:00:56;15.10;96.90
10903;DHT22;5504;47.312;11.060;2023-05-10T05:03:21;15.10;97.10
10903;DHT22;5504;47.312;11.060;2023-05-10T05:05:47;15.00;96.80
10903;DHT22;5504;47.312;11.060;2023-05-10T05:08:13;15.00;97.10
10903;DHT22;5504;47.312;11.060;2023-05-10T05:10:39;15.10;97.20
10903;DHT22;5504;47.312;11.060;2023-05-10T05:13:05;15.10;97.00
10903;DHT22;5504;47.312;11.060;2023-05-10T05:15:31;15.20;96.90
10903;DHT22;5504;47.312;11.060;2023-05-10T05:17:56;15.10;96.30
10903;DHT22;5504;47.312;11.060;2023-05-10T05:20:22;15.10;96.50
10903;DHT22;5504;47.312;11.060;2023-05-10T05:22:48;15.20;96.80
10903;DHT22;5504;47.312;11.060;2023-05-10T05:25:13;15.20;96.80
10903;DHT22;5504;47.312;11.060;2023-05-10T05:27:40;15.30;96.80
10903;DHT22;5504;47.312;11.060;2023-05-10T05:30:07;15.30;96.80
10903;DHT22;5504;47.312;11.060;2023-05-10T05:32:33;15.30;96.50
10903;DHT22;5504;47.312;11.060;2023-05-10T05:34:58;15.30;96.30
10903;DHT22;5504;47.312;11.060;2023-05-10T05:37:25;15.30;96.50
10903;DHT22;5504;47.312;11.060;2023-05-10T05:39:50;15.30;96.40
10903;DHT22;5504;47.312;11.060;2023-05-10T05:42:16;15.30;96.40
10903;DHT22;5504;47.312;11.060;2023-05-10T05:44:44;15.40;96.60
10903;DHT22;5504;47.312;11.060;2023-05-10T05:47:10;15.40;96.00
10903;DHT22;5504;47.312;11.060;2023-05-10T05:49:36;15.20;95.60
10903;DHT22;5504;47.312;11.060;2023-05-10T05:52:02;15.20;96.30
10903;DHT22;5504;47.312;11.060;2023-05-10T05:54:29;15.30;96.50
10903;DHT22;5504;47.312;11.060;2023-05-10T05:56:58;15.50;96.40
10903;DHT22;5504;47.312;11.060;2023-05-10T05:59:24;15.80;96.10
10903;DHT22;5504;47.312;11.060;2023-05-10T06:01:51;15.80;95.70
10903;DHT22;5504;47.312;11.060;2023-05-10T06:04:17;15.70;95.70
10903;DHT22;5504;47.312;11.060;2023-05-10T06:06:43;15.60;95.70
10903;DHT22;5504;47.312;11.060;2023-05-10T06:09:09;15.40;96.00
10903;DHT22;5504;47.312;11.060;2023-05-10T06:11:35;15.50;95.70
10903;DHT22;5504;47.312;11.060;2023-05-10T06:14:01;15.50;96.10
10903;DHT22;5504;47.312;11.060;2023-05-10T06:16:27;15.60;96.30
10903;DHT22;5504;47.312;11.060;2023-05-10T06:18:53;15.70;96.00
10903;DHT22;5504;47.312;11.060;2023-05-10T06:21:19;15.70;96.00
10903;DHT22;5504;47.312;11.060;2023-05-10T06:23:44;15.80;95.70
10903;DHT22;5504;47.312;11.060;2023-05-10T06:26:10;15.80;95.10
10903;DHT22;5504;47.312;11.060;2023-05-10T06:28:36;15.50;94.90
10903;DHT22;5504;47.312;11.060;2023-05-10T06:31:04;15.50;95.20
10903;DHT22;5504;47.312;11.060;2023-05-10T06:33:30;15.70;95.70
10903;DHT22;5504;47.312;11.060;2023-05-10T06:35:56;15.80;95.60
10903;DHT22;5504;47.312;11.060;2023-05-10T06:38:22;15.90;94.90
10903;DHT22;5504;47.312;11.060;2023-05-10T06:40:48;15.90;94.50
10903;DHT22;5504;47.312;11.060;2023-05-10T06:43:14;16.00;94.70
10903;DHT22;5504;47.312;11.060;2023-05-10T06:45:40;16.10;94.50
10903;DHT22;5504;47.312;11.060;2023-05-10T06:48:06;16.30;94.30
10903;DHT22;5504;47.312;11.060;2023-05-10T06:50:32;16.40;94.20
10903;DHT22;5504;47.312;11.060;2023-05-10T06:52:59;16.40;94.00
10903;DHT22;5504;47.312;11.060;2023-05-10T06:55:25;16.30;93.40
10903;DHT22;5504;47.312;11.060;2023-05-10T06:57:50;16.40;93.90
10903;DHT22;5504;47.312;11.060;2023-05-10T07:00:17;16.50;94.70
10903;DHT22;5504;47.312;11.060;2023-05-10T07:02:43;16.60;94.50
10903;DHT22;5504;47.312;11.060;2023-05-10T07:05:09;16.70;94.30
10903;DHT22;5504;47.312;11.060;2023-05-10T07:07:34;16.70;94.00
10903;DHT22;5504;47.312;11.060;2023-05-10T07:10:01;16.60;93.60
10903;DHT22;5504;47.312;11.060;2023-05-10T07:12:26;16.40;93.50
10903;DHT22;5504;47.312;11.060;2023-05-10T07:14:52;16.30;93.60
10903;DHT22;5504;47.312;11.060;2023-05-10T07:17:18;16.30;93.60
10903;DHT22;5504;47.312;11.060;2023-05-10T07:19:44;16.30;94.00
10903;DHT22;5504;47.312;11.060;2023-05-10T07:22:09;16.30;94.10
10903;DHT22;5504;47.312;11.060;2023-05-10T07:24:35;16.50;94.60
10903;DHT22;5504;47.312;11.060;2023-05-10T07:27:01;16.60;94.80
10903;DHT22;5504;47.312;11.060;2023-05-10T07:29:27;16.70;94.20
10903;DHT22;5504;47.312;11.060;2023-05-10T07:31:54;16.60;93.80
10903;DHT22;5504;47.312;11.060;2023-05-10T07:34:19;16.70;93.90
10903;DHT22;5504;47.312;11.060;2023-05-10T07:36:45;16.70;92.90
10903;DHT22;5504;47.312;11.060;2023-05-10T07:39:11;16.20;91.70
10903;DHT22;5504;47.312;11.060;2023-05-10T07:41:37;16.00;92.90
10903;DHT22;5504;47.312;11.060;2023-05-10T07:44:04;16.20;93.10
10903;DHT22;5504;47.312;11.060;2023-05-10T07:46:30;16.30;93.40
10903;DHT22;5504;47.312;11.060;2023-05-10T07:48:55;16.30;93.20
10903;DHT22;5504;47.312;11.060;2023-05-10T07:51:21;16.30;93.70
10903;DHT22;5504;47.312;11.060;2023-05-10T07:53:47;16.60;93.50
10903;DHT22;5504;47.312;11.060;2023-05-10T07:56:24;16.80;92.60
10903;DHT22;5504;47.312;11.060;2023-05-10T07:58:51;16.80;92.50
10903;DHT22;5504;47.312;11.060;2023-05-10T08:01:17;16.90;92.50
10903;DHT22;5504;47.312;11.060;2023-05-10T08:03:43;16.70;91.90
10903;DHT22;5504;47.312;11.060;2023-05-10T08:06:08;16.30;92.10
10903;DHT22;5504;47.312;11.060;2023-05-10T08:08:34;16.20;92.90
10903;DHT22;5504;47.312;11.060;2023-05-10T08:11:00;16.10;92.80
10903;DHT22;5504;47.312;11.060;2023-05-10T08:13:25;16.10;93.30
10903;DHT22;5504;47.312;11.060;2023-05-10T08:15:51;16.00;93.20
10903;DHT22;5504;47.312;11.060;2023-05-10T08:18:18;15.90;92.80
10903;DHT22;5504;47.312;11.060;2023-05-10T08:20:44;15.90;93.10
10903;DHT22;5504;47.312;11.060;2023-05-10T08:23:11;16.10;93.00
10903;DHT22;5504;47.312;11.060;2023-05-10T08:25:37;16.00;93.00
10903;DHT22;5504;47.312;11.060;2023-05-10T08:28:03;16.00;92.70
10903;DHT22;5504;47.312;11.060;2023-05-10T08:30:29;16.10;93.50
10903;DHT22;5504;47.312;11.060;2023-05-10T08:32:54;16.20;93.00
10903;DHT22;5504;47.312;11.060;2023-05-10T08:35:20;16.20;93.00
10903;DHT22;5504;47.312;11.060;2023-05-10T08:37:46;15.60;92.40
10903;DHT22;5504;47.312;11.060;2023-05-10T08:40:11;15.50;93.10
10903;DHT22;5504;47.312;11.060;2023-05-10T08:42:40;15.70;94.10
10903;DHT22;5504;47.312;11.060;2023-05-10T08:45:10;16.20;94.00
10903;DHT22;5504;47.312;11.060;2023-05-10T08:47:36;16.60;93.00
10903;DHT22;5504;47.312;11.060;2023-05-10T08:50:03;17.00;92.50
10903;DHT22;5504;47.312;11.060;2023-05-10T08:52:30;17.20;92.10
10903;DHT22;5504;47.312;11.060;2023-05-10T08:54:58;17.30;91.30
10903;DHT22;5504;47.312;11.060;2023-05-10T08:57:24;17.60;91.10
10903;DHT22;5504;47.312;11.060;2023-05-10T08:59:50;17.80;90.60
10903;DHT22;5504;47.312;11.060;2023-05-10T09:02:16;17.90;90.20
10903;DHT22;5504;47.312;11.060;2023-05-10T09:04:43;17.90;90.20
10903;DHT22;5504;47.312;11.060;2023-05-10T09:07:10;17.80;90.50
10903;DHT22;5504;47.312;11.060;2023-05-10T09:09:36;17.20;90.20
10903;DHT22;5504;47.312;11.060;2023-05-10T09:12:03;17.40;90.60
10903;DHT22;5504;47.312;11.060;2023-05-10T09:14:29;17.10;90.30
10903;DHT22;5504;47.312;11.060;2023-05-10T09:16:55;16.90;91.50
10903;DHT22;5504;47.312;11.060;2023-05-10T09:19:21;16.60;91.00
10903;DHT22;5504;47.312;11.060;2023-05-10T09:21:47;16.40;90.00
10903;DHT22;5504;47.312;11.060;2023-05-10T09:24:14;16.50;91.90
10903;DHT22;5504;47.312;11.060;2023-05-10T09:26:47;16.90;92.60
10903;DHT22;5504;47.312;11.060;2023-05-10T09:29:16;17.10;91.40
10903;DHT22;5504;47.312;11.060;2023-05-10T09:31:50;17.10;90.60
10903;DHT22;5504;47.312;11.060;2023-05-10T09:34:28;17.10;90.80
10903;DHT22;5504;47.312;11.060;2023-05-10T09:36:56;17.20;90.60
10903;DHT22;5504;47.312;11.060;2023-05-10T09:39:36;17.30;91.30
10903;DHT22;5504;47.312;11.060;2023-05-10T09:42:06;17.20;90.90
10903;DHT22;5504;47.312;11.060;2023-05-10T09:44:33;17.10;91.20
10903;DHT22;5504;47.312;11.060;2023-05-10T09:47:00;17.20;90.90
10903;DHT22;5504;47.312;11.060;2023-05-10T09:49:26;17.30;91.10
10903;DHT22;5504;47.312;11.060;2023-05-10T09:52:05;17.10;90.80
10903;DHT22;5504;47.312;11.060;2023-05-10T09:54:32;17.20;91.30
10903;DHT22;5504;47.312;11.060;2023-05-10T09:56:58;16.90;90.10
10903;DHT22;5504;47.312;11.060;2023-05-10T09:59:26;16.80;90.70
10903;DHT22;5504;47.312;11.060;2023-05-10T10:01:59;17.10;92.20
10903;DHT22;5504;47.312;11.060;2023-05-10T10:04:25;17.40;92.20
10903;DHT22;5504;47.312;11.060;2023-05-10T10:07:04;17.50;90.60
10903;DHT22;5504;47.312;11.060;2023-05-10T10:09:31;17.60;90.50
10903;DHT22;5504;47.312;11.060;2023-05-10T10:11:57;17.50;90.10
10903;DHT22;5504;47.312;11.060;2023-05-10T10:14:23;17.30;90.80
10903;DHT22;5504;47.312;11.060;2023-05-10T10:16:52;17.60;90.80
10903;DHT22;5504;47.312;11.060;2023-05-10T10:19:18;17.60;91.10
10903;DHT22;5504;47.312;11.060;2023-05-10T10:21:44;17.60;90.30
10903;DHT22;5504;47.312;11.060;2023-05-10T10:24:10;17.70;90.40
10903;DHT22;5504;47.312;11.060;2023-05-10T10:26:37;17.60;90.10
10903;DHT22;5504;47.312;11.060;2023-05-10T10:29:23;17.40;89.90
10903;DHT22;5504;47.312;11.060;2023-05-10T10:32:22;17.30;90.80
10903;DHT22;5504;47.312;11.060;2023-05-10T10:34:51;17.40;91.20
10903;DHT22;5504;47.312;11.060;2023-05-10T10:37:17;17.10;90.90
10903;DHT22;5504;47.312;11.060;2023-05-10T10:39:43;17.20;91.30
10903;DHT22;5504;47.312;11.060;2023-05-10T10:42:09;17.10;91.00
10903;DHT22;5504;47.312;11.060;2023-05-10T10:44:36;16.90;90.20
10903;DHT22;5504;47.312;11.060;2023-05-10T10:47:04;16.80;90.20
10903;DHT22;5504;47.312;11.060;2023-05-10T10:52:29;16.40;89.60
10903;DHT22;5504;47.312;11.060;2023-05-10T10:57:54;16.50;91.00
10903;DHT22;5504;47.312;11.060;2023-05-10T11:00:35;16.60;90.40
10903;DHT22;5504;47.312;11.060;2023-05-10T11:05:38;16.70;90.20
10903;DHT22;5504;47.312;11.060;2023-05-10T11:08:13;16.70;90.10
10903;DHT22;5504;47.312;11.060;2023-05-10T11:10:48;16.60;87.40
10903;DHT22;5504;47.312;11.060;2023-05-10T11:13:14;16.50;89.10
10903;DHT22;5504;47.312;11.060;2023-05-10T11:15:40;16.30;89.70
10903;DHT22;5504;47.312;11.060;2023-05-10T11:18:21;16.60;90.90
10903;DHT22;5504;47.312;11.060;2023-05-10T11:21:01;17.00;90.00
10903;DHT22;5504;47.312;11.060;2023-05-10T11:23:49;16.30;89.70
10903;DHT22;5504;47.312;11.060;2023-05-10T11:26:15;16.40;89.20
10903;DHT22;5504;47.312;11.060;2023-05-10T11:28:45;16.20;89.70
10903;DHT22;5504;47.312;11.060;2023-05-10T11:31:14;16.50;91.40
10903;DHT22;5504;47.312;11.060;2023-05-10T11:33:47;17.00;91.40
10903;DHT22;5504;47.312;11.060;2023-05-10T11:36:36;17.30;90.80
10903;DHT22;5504;47.312;11.060;2023-05-10T11:39:03;16.70;85.80
10903;DHT22;5504;47.312;11.060;2023-05-10T11:41:30;16.50;90.00
10903;DHT22;5504;47.312;11.060;2023-05-10T11:43:57;16.80;89.00
10903;DHT22;5504;47.312;11.060;2023-05-10T11:46:24;16.80;86.50
10903;DHT22;5504;47.312;11.060;2023-05-10T11:48:54;16.80;89.50
10903;DHT22;5504;47.312;11.060;2023-05-10T11:51:21;16.70;89.50
10903;DHT22;5504;47.312;11.060;2023-05-10T11:53:48;16.90;90.00
10903;DHT22;5504;47.312;11.060;2023-05-10T11:56:14;16.90;88.20
10903;DHT22;5504;47.312;11.060;2023-05-10T11:58:40;17.10;89.50
10903;DHT22;5504;47.312;11.060;2023-05-10T12:01:07;17.20;89.30
10903;DHT22;5504;47.312;11.060;2023-05-10T12:03:33;17.30;89.80
10903;DHT22;5504;47.312;11.060;2023-05-10T12:06:02;17.40;90.50
10903;DHT22;5504;47.312;11.060;2023-05-10T12:08:29;17.60;90.60
10903;DHT22;5504;47.312;11.060;2023-05-10T12:11:07;17.40;90.20
10903;DHT22;5504;47.312;11.060;2023-05-10T12:13:41;17.50;90.20
10903;DHT22;5504;47.312;11.060;2023-05-10T12:16:33;17.50;90.90
10903;DHT22;5504;47.312;11.060;2023-05-10T12:19:00;17.20;88.80
10903;DHT22;5504;47.312;11.060;2023-05-10T12:21:28;17.20;90.50
10903;DHT22;5504;47.312;11.060;2023-05-10T12:24:03;17.30;90.40
10903;DHT22;5504;47.312;11.060;2023-05-10T12:26:30;17.40;90.30
10903;DHT22;5504;47.312;11.060;2023-05-10T12:29:15;17.50;90.10
10903;DHT22;5504;47.312;11.060;2023-05-10T12:31:55;17.40;90.30
10903;DHT22;5504;47.312;11.060;2023-05-10T12:34:34;17.20;89.60
10903;DHT22;5504;47.312;11.060;2023-05-10T12:37:02;17.30;90.80
10903;DHT22;5504;47.312;11.060;2023-05-10T12:39:41;17.30;90.20
10903;DHT22;5504;47.312;11.060;2023-05-10T12:42:08;17.40;89.50
10903;DHT22;5504;47.312;11.060;2023-05-10T12:44:34;17.20;88.00
10903;DHT22;5504;47.312;11.060;2023-05-10T12:46:59;17.20;89.40
10903;DHT22;5504;47.312;11.060;2023-05-10T12:49:25;17.50;89.10
10903;DHT22;5504;47.312;11.060;2023-05-10T12:51:51;17.60;88.70
10903;DHT22;5504;47.312;11.060;2023-05-10T12:54:16;17.50;87.60
10903;DHT22;5504;47.312;11.060;2023-05-10T12:56:43;17.50;88.20
10903;DHT22;5504;47.312;11.060;2023-05-10T12:59:08;17.50;88.20
10903;DHT22;5504;47.312;11.060;2023-05-10T13:01:34;17.40;88.20
10903;DHT22;5504;47.312;11.060;2023-05-10T13:04:00;17.30;87.20
10903;DHT22;5504;47.312;11.060;2023-05-10T13:06:25;17.30;87.90
10903;DHT22;5504;47.312;11.060;2023-05-10T13:08:51;17.40;88.00
10903;DHT22;5504;47.312;11.060;2023-05-10T13:11:17;17.40;87.20
10903;DHT22;5504;47.312;11.060;2023-05-10T13:13:45;17.30;87.00
10903;DHT22;5504;47.312;11.060;2023-05-10T13:16:10;17.10;86.40
10903;DHT22;5504;47.312;11.060;2023-05-10T13:18:36;16.90;87.40
10903;DHT22;5504;47.312;11.060;2023-05-10T13:21:02;17.00;86.50
10903;DHT22;5504;47.312;11.060;2023-05-10T13:23:29;16.70;87.10
10903;DHT22;5504;47.312;11.060;2023-05-10T13:25:55;16.20;86.30
10903;DHT22;5504;47.312;11.060;2023-05-10T13:28:20;16.20;89.60
10903;DHT22;5504;47.312;11.060;2023-05-10T13:30:46;15.90;90.50
10903;DHT22;5504;47.312;11.060;2023-05-10T13:33:12;15.80;90.00
10903;DHT22;5504;47.312;11.060;2023-05-10T13:35:37;15.70;89.50
10903;DHT22;5504;47.312;11.060;2023-05-10T13:38:03;15.70;90.70
10903;DHT22;5504;47.312;11.060;2023-05-10T13:40:29;15.70;90.70
10903;DHT22;5504;47.312;11.060;2023-05-10T13:42:54;15.60;91.30
10903;DHT22;5504;47.312;11.060;2023-05-10T13:45:20;15.50;91.80
10903;DHT22;5504;47.312;11.060;2023-05-10T13:47:46;15.50;91.90
10903;DHT22;5504;47.312;11.060;2023-05-10T13:50:11;15.50;92.20
10903;DHT22;5504;47.312;11.060;2023-05-10T13:52:37;15.60;93.00
10903;DHT22;5504;47.312;11.060;2023-05-10T13:55:04;15.70;93.00
10903;DHT22;5504;47.312;11.060;2023-05-10T13:57:30;15.80;92.70
10903;DHT22;5504;47.312;11.060;2023-05-10T13:59:56;15.80;92.60
10903;DHT22;5504;47.312;11.060;2023-05-10T14:02:22;15.70;92.10
10903;DHT22;5504;47.312;11.060;2023-05-10T14:04:48;15.60;91.90
10903;DHT22;5504;47.312;11.060;2023-05-10T14:07:14;15.40;92.40
10903;DHT22;5504;47.312;11.060;2023-05-10T14:09:39;15.30;91.30
10903;DHT22;5504;47.312;11.060;2023-05-10T14:12:05;15.50;92.50
10903;DHT22;5504;47.312;11.060;2023-05-10T14:14:31;15.60;92.20
10903;DHT22;5504;47.312;11.060;2023-05-10T14:16:57;15.50;91.80
10903;DHT22;5504;47.312;11.060;2023-05-10T14:19:22;15.70;92.30
10903;DHT22;5504;47.312;11.060;2023-05-10T14:21:48;15.90;91.80
10903;DHT22;5504;47.312;11.060;2023-05-10T14:24:14;16.00;91.50
10903;DHT22;5504;47.312;11.060;2023-05-10T14:26:39;15.80;91.20
10903;DHT22;5504;47.312;11.060;2023-05-10T14:29:05;15.80;92.10
10903;DHT22;5504;47.312;11.060;2023-05-10T14:31:31;16.00;92.00
10903;DHT22;5504;47.312;11.060;2023-05-10T14:33:57;16.10;91.90
10903;DHT22;5504;47.312;11.060;2023-05-10T14:36:23;16.20;91.70
10903;DHT22;5504;47.312;11.060;2023-05-10T14:38:48;16.10;91.40
10903;DHT22;5504;47.312;11.060;2023-05-10T14:41:15;16.10;92.00
10903;DHT22;5504;47.312;11.060;2023-05-10T14:43:43;16.00;91.90
10903;DHT22;5504;47.312;11.060;2023-05-10T14:46:08;16.10;92.10
10903;DHT22;5504;47.312;11.060;2023-05-10T14:48:34;16.10;91.90
10903;DHT22;5504;47.312;11.060;2023-05-10T14:51:00;16.10;91.50
10903;DHT22;5504;47.312;11.060;2023-05-10T14:53:26;16.20;91.60
10903;DHT22;5504;47.312;11.060;2023-05-10T14:55:51;15.70;90.00
10903;DHT22;5504;47.312;11.060;2023-05-10T14:58:17;15.30;90.50
10903;DHT22;5504;47.312;11.060;2023-05-10T15:00:43;15.20;91.20
10903;DHT22;5504;47.312;11.060;2023-05-10T15:03:09;15.00;91.00
10903;DHT22;5504;47.312;11.060;2023-05-10T15:05:35;15.10;91.80
10903;DHT22;5504;47.312;11.060;2023-05-10T15:08:02;15.20;91.80
10903;DHT22;5504;47.312;11.060;2023-05-10T15:10:28;15.10;91.20
10903;DHT22;5504;47.312;11.060;2023-05-10T15:12:54;15.20;91.40
10903;DHT22;5504;47.312;11.060;2023-05-10T15:15:20;15.00;91.40
10903;DHT22;5504;47.312;11.060;2023-05-10T15:17:45;14.80;90.80
10903;DHT22;5504;47.312;11.060;2023-05-10T15:20:11;14.80;91.30
10903;DHT22;5504;47.312;11.060;2023-05-10T15:22:37;15.00;92.30
10903;DHT22;5504;47.312;11.060;2023-05-10T15:25:03;15.10;92.70
10903;DHT22;5504;47.312;11.060;2023-05-10T15:27:29;15.30;93.40
10903;DHT22;5504;47.312;11.060;2023-05-10T15:29:55;15.30;93.50
10903;DHT22;5504;47.312;11.060;2023-05-10T15:32:21;15.40;93.70
10903;DHT22;5504;47.312;11.060;2023-05-10T15:34:47;15.40;93.40
10903;DHT22;5504;47.312;11.060;2023-05-10T15:37:12;15.50;93.10
10903;DHT22;5504;47.312;11.060;2023-05-10T15:39:38;15.50;92.90
10903;DHT22;5504;47.312;11.060;2023-05-10T15:42:04;15.60;92.60
10903;DHT22;5504;47.312;11.060;2023-05-10T15:44:29;15.60;92.40
10903;DHT22;5504;47.312;11.060;2023-05-10T15:46:55;15.50;92.70
10903;DHT22;5504;47.312;11.060;2023-05-10T15:49:21;15.60;92.60
10903;DHT22;5504;47.312;11.060;2023-05-10T15:51:47;15.90;92.10
10903;DHT22;5504;47.312;11.060;2023-05-10T15:54:12;16.00;91.60